createdAt,value
2023-02-16T00:00:19.523Z,66.85
2023-02-16T00:03:22.635Z,67.82
2023-02-16T00:06:26.367Z,73.05
2023-02-16T00:09:28.888Z,74.18
2023-02-16T00:12:49.591Z,72.10
2023-02-16T00:15:52.247Z,73.95
2023-02-16T00:18:54.511Z,75.95
2023-02-16T00:21:59.077Z,70.53
2023-02-16T00:25:01.312Z,68.62
2023-02-16T00:28:08.000Z,68.00
2023-02-16T00:31:22.266Z,61.22
2023-02-16T00:34:32.938Z,63.30
2023-02-16T00:37:35.143Z,67.63
2023-02-16T00:40:38.016Z,67.32
2023-02-16T00:43:41.292Z,70.30
2023-02-16T00:46:45.049Z,63.10
2023-02-16T00:49:53.245Z,63.45
2023-02-16T00:52:58.342Z,62.33
2023-02-16T00:56:00.880Z,62.53
2023-02-16T00:59:06.174Z,63.80
2023-02-16T01:02:08.457Z,60.72
2023-02-16T01:05:11.345Z,63.53
2023-02-16T01:08:35.026Z,62.88
2023-02-16T01:11:39.289Z,63.83
2023-02-16T01:14:41.562Z,61.22
2023-02-16T01:17:44.381Z,61.15
2023-02-16T01:20:47.645Z,61.20
2023-02-16T01:23:50.273Z,59.22
2023-02-16T01:26:54.458Z,57.35
2023-02-16T01:29:56.970Z,62.13
2023-02-16T01:32:59.211Z,62.65
2023-02-16T01:36:01.686Z,61.17
2023-02-16T01:39:04.916Z,64.03
2023-02-16T01:42:30.749Z,62.10
2023-02-16T01:45:37.917Z,60.53
2023-02-16T01:48:41.157Z,60.80
2023-02-16T01:52:11.957Z,59.70
2023-02-16T01:55:24.745Z,55.80
2023-02-16T01:58:34.548Z,62.47
2023-02-16T02:01:36.966Z,59.00
2023-02-16T02:05:15.824Z,61.05
2023-02-16T02:08:33.363Z,61.53
2023-02-16T02:11:42.468Z,64.68
2023-02-16T02:14:45.018Z,62.83
2023-02-16T02:17:48.571Z,61.80
2023-02-16T02:21:41.145Z,60.08
2023-02-16T02:25:15.741Z,60.33
2023-02-16T02:28:32.381Z,57.75
2023-02-16T02:31:50.435Z,66.28
2023-02-16T02:34:53.024Z,60.30
2023-02-16T02:38:26.440Z,62.40
2023-02-16T02:42:06.193Z,64.20
2023-02-16T02:45:18.608Z,64.68
2023-02-16T02:48:22.458Z,67.15
2023-02-16T02:51:30.888Z,64.53
2023-02-16T02:54:59.049Z,65.85
2023-02-16T02:58:20.769Z,68.60
2023-02-16T03:01:25.020Z,66.20
2023-02-16T03:04:31.122Z,67.57
2023-02-16T03:07:48.736Z,64.95
2023-02-16T03:11:19.285Z,63.75
2023-02-16T03:14:48.039Z,60.08
2023-02-16T03:18:13.338Z,60.08
2023-02-16T03:21:35.180Z,60.42
2023-02-16T03:24:56.307Z,59.63
2023-02-16T03:28:21.336Z,58.72
2023-02-16T03:31:30.205Z,55.42
2023-02-16T03:34:35.852Z,55.97
2023-02-16T03:37:39.418Z,53.70
2023-02-16T03:40:45.008Z,56.00
2023-02-16T03:43:47.155Z,61.60
2023-02-16T03:46:50.408Z,60.20
2023-02-16T03:49:52.594Z,58.42
2023-02-16T03:53:06.730Z,58.60
2023-02-16T03:56:09.068Z,61.25
2023-02-16T03:59:11.518Z,57.42
2023-02-16T04:02:13.812Z,61.53
2023-02-16T04:05:16.323Z,65.30
2023-02-16T04:08:18.573Z,60.97
2023-02-16T04:11:39.868Z,55.95
2023-02-16T04:14:43.692Z,58.47
2023-02-16T04:17:46.801Z,62.05
2023-02-16T04:20:49.045Z,55.88
2023-02-16T04:23:51.510Z,59.35
2023-02-16T04:26:53.641Z,59.88
2023-02-16T04:29:56.045Z,59.83
2023-02-16T04:32:59.577Z,59.85
2023-02-16T04:36:02.165Z,56.03
2023-02-16T04:39:04.763Z,59.80
2023-02-16T04:42:07.309Z,60.20
2023-02-16T04:45:10.651Z,59.33
2023-02-16T04:48:13.050Z,60.95
2023-02-16T04:51:15.282Z,59.03
2023-02-16T04:54:17.712Z,60.88
2023-02-16T04:57:21.397Z,58.40
2023-02-16T05:00:24.079Z,59.47
2023-02-16T05:03:26.251Z,59.35
2023-02-16T05:06:28.710Z,56.42
2023-02-16T05:09:30.891Z,55.70
2023-02-16T05:12:51.864Z,57.92
2023-02-16T05:15:54.096Z,55.12
2023-02-16T05:18:58.906Z,61.20
2023-02-16T05:22:01.168Z,61.40
2023-02-16T05:25:03.864Z,58.50
2023-02-16T05:28:06.184Z,59.70
2023-02-16T05:31:08.716Z,56.35
2023-02-16T05:34:11.058Z,56.60
2023-02-16T05:37:15.218Z,59.67
2023-02-16T05:40:17.538Z,59.47
2023-02-16T05:43:19.988Z,59.90
2023-02-16T05:46:24.588Z,58.10
2023-02-16T05:49:27.104Z,59.00
2023-02-16T05:52:29.270Z,60.12
2023-02-16T05:55:31.703Z,53.53
2023-02-16T05:58:33.925Z,59.47
2023-02-16T06:01:36.365Z,59.38
2023-02-16T06:04:39.383Z,59.28
2023-02-16T06:07:41.514Z,60.85
2023-02-16T06:10:43.989Z,63.42
2023-02-16T06:13:46.166Z,58.58
2023-02-16T06:16:51.490Z,63.70
2023-02-16T06:19:54.253Z,61.70
2023-02-16T06:22:56.819Z,62.92
2023-02-16T06:25:58.987Z,64.60
2023-02-16T06:29:01.557Z,64.55
2023-02-16T06:32:04.235Z,61.58
2023-02-16T06:35:07.015Z,62.85
2023-02-16T06:38:09.118Z,67.40
2023-02-16T06:41:11.708Z,65.68
2023-02-16T06:44:15.803Z,64.65
2023-02-16T06:47:18.255Z,63.35
2023-02-16T06:50:20.543Z,63.95
2023-02-16T06:53:23.060Z,61.35
2023-02-16T06:56:25.432Z,62.95
2023-02-16T06:59:27.876Z,60.97
2023-02-16T07:02:30.019Z,68.18
2023-02-16T07:05:32.494Z,63.33
2023-02-16T07:08:35.895Z,67.53
2023-02-16T07:11:38.740Z,64.90
2023-02-16T07:14:43.071Z,67.87
2023-02-16T07:17:46.352Z,71.25
2023-02-16T07:20:49.075Z,72.43
2023-02-16T07:23:51.607Z,66.10
2023-02-16T07:26:55.047Z,70.18
2023-02-16T07:29:57.567Z,66.18
2023-02-16T07:32:59.874Z,67.37
2023-02-16T07:36:03.318Z,69.00
2023-02-16T07:39:05.658Z,67.40
2023-02-16T07:42:08.079Z,69.32
2023-02-16T07:45:10.236Z,83.00
2023-02-16T07:48:13.912Z,80.18
2023-02-16T07:51:30.765Z,76.47
2023-02-16T07:54:33.532Z,86.53
2023-02-16T07:57:38.759Z,87.03
2023-02-16T08:00:41.228Z,82.93
2023-02-16T08:03:43.775Z,80.72
2023-02-16T08:06:48.588Z,85.70
2023-02-16T08:09:51.196Z,81.15
2023-02-16T08:12:53.355Z,77.43
2023-02-16T08:15:55.779Z,74.28
2023-02-16T08:18:59.961Z,75.93
2023-02-16T08:22:02.809Z,79.72
2023-02-16T08:25:06.887Z,80.03
2023-02-16T08:28:09.680Z,76.43
2023-02-16T08:31:20.086Z,76.53
2023-02-16T08:34:24.079Z,75.20
2023-02-16T08:37:26.288Z,78.78
2023-02-16T08:40:30.159Z,79.47
2023-02-16T08:43:32.508Z,78.22
2023-02-16T08:46:37.187Z,76.72
2023-02-16T08:49:39.602Z,80.25
2023-02-16T08:52:42.077Z,81.05
2023-02-16T08:55:51.593Z,74.43
2023-02-16T08:58:54.057Z,84.28
2023-02-16T09:01:58.154Z,88.50
2023-02-16T09:05:01.117Z,88.25
2023-02-16T09:08:03.464Z,94.80
2023-02-16T09:11:08.926Z,96.85
2023-02-16T09:14:11.133Z,93.72
2023-02-16T09:17:14.301Z,91.90
2023-02-16T09:20:17.223Z,95.12
2023-02-16T09:23:20.537Z,92.18
2023-02-16T09:26:24.680Z,92.37
2023-02-16T09:29:27.178Z,82.65
2023-02-16T09:32:30.615Z,90.45
2023-02-16T09:35:33.085Z,93.62
2023-02-16T09:38:36.686Z,99.35
2023-02-16T09:42:05.559Z,95.40
2023-02-16T09:45:20.418Z,108.82
2023-02-16T09:48:37.379Z,101.80
2023-02-16T09:51:44.612Z,222.35
2023-02-16T09:54:51.857Z,121.05
2023-02-16T09:58:21.553Z,108.85
2023-02-16T10:01:47.810Z,108.87
2023-02-16T10:05:04.504Z,98.68
2023-02-16T10:08:13.307Z,109.45
2023-02-16T10:11:48.825Z,96.90
2023-02-16T10:15:01.370Z,95.30
2023-02-16T10:18:16.405Z,102.07
2023-02-16T10:21:26.295Z,92.32
2023-02-16T10:24:34.568Z,86.40
2023-02-16T10:27:45.701Z,88.20
2023-02-16T10:31:01.472Z,92.05
2023-02-16T10:34:06.805Z,85.62
2023-02-16T10:37:47.617Z,87.72
2023-02-16T10:41:01.434Z,83.32
2023-02-16T10:44:22.723Z,85.15
2023-02-16T10:47:36.828Z,92.12
2023-02-16T10:50:42.121Z,90.60
2023-02-16T10:53:50.948Z,84.18
2023-02-16T10:56:59.502Z,74.15
2023-02-16T11:00:06.736Z,68.87
2023-02-16T11:03:12.588Z,69.45
2023-02-16T11:06:17.955Z,65.70
2023-02-16T11:09:27.859Z,66.65
2023-02-16T11:12:33.443Z,64.53
2023-02-16T11:15:39.235Z,59.63
2023-02-16T11:18:45.385Z,62.58
2023-02-16T11:21:55.214Z,64.00
2023-02-16T11:25:22.561Z,66.57
2023-02-16T11:28:48.581Z,65.10
2023-02-16T11:31:50.857Z,71.50
2023-02-16T11:34:53.818Z,68.18
2023-02-16T11:37:56.073Z,70.10
2023-02-16T11:41:00.774Z,72.45
2023-02-16T11:44:04.103Z,71.95
2023-02-16T11:47:21.287Z,66.47
2023-02-16T11:50:38.434Z,74.00
2023-02-16T11:53:43.387Z,71.20
2023-02-16T11:57:02.394Z,63.45
2023-02-16T12:00:19.254Z,55.75
2023-02-16T12:03:31.456Z,60.70
2023-02-16T12:06:49.880Z,66.47
2023-02-16T12:10:31.283Z,71.20
2023-02-16T12:13:58.340Z,64.90
2023-02-16T12:17:07.862Z,60.50
2023-02-16T12:20:28.249Z,65.82
2023-02-16T12:23:39.881Z,67.25
2023-02-16T12:26:52.024Z,58.17
2023-02-16T12:30:03.196Z,60.75
2023-02-16T12:33:13.480Z,64.15
2023-02-16T12:36:25.489Z,61.03
2023-02-16T12:39:55.352Z,53.83
2023-02-16T12:43:22.505Z,54.92
2023-02-16T12:46:30.513Z,54.65
2023-02-16T12:49:55.152Z,56.03
2023-02-16T12:53:03.497Z,52.35
2023-02-16T12:56:14.440Z,51.75
2023-02-16T12:59:24.940Z,56.95
2023-02-16T13:02:43.216Z,54.72
2023-02-16T13:05:51.234Z,50.58
2023-02-16T13:09:16.216Z,48.60
2023-02-16T13:12:31.507Z,49.13
2023-02-16T13:15:38.272Z,47.25
2023-02-16T13:18:44.288Z,49.75
2023-02-16T13:21:52.806Z,48.60
2023-02-16T13:25:04.110Z,41.22
2023-02-16T13:28:23.081Z,43.20
2023-02-16T13:31:49.261Z,40.85
2023-02-16T13:35:30.138Z,41.42
2023-02-16T13:38:43.634Z,42.03
2023-02-16T13:42:13.232Z,42.45
2023-02-16T13:45:22.933Z,38.47
2023-02-16T13:48:39.339Z,39.15
2023-02-16T13:51:47.170Z,41.50
2023-02-16T13:54:50.050Z,40.22
2023-02-16T13:58:01.695Z,36.25
2023-02-16T14:01:39.105Z,41.50
2023-02-16T14:04:50.393Z,40.50
2023-02-16T14:08:11.845Z,44.42
2023-02-16T14:11:14.274Z,42.50
2023-02-16T14:14:28.626Z,44.45
2023-02-16T14:17:37.400Z,45.92
2023-02-16T14:20:39.624Z,41.37
2023-02-16T14:23:42.825Z,44.70
2023-02-16T14:26:59.445Z,45.05
2023-02-16T14:30:04.398Z,50.90
2023-02-16T14:33:12.445Z,42.40
2023-02-16T14:36:16.636Z,44.58
2023-02-16T14:39:24.756Z,47.67
2023-02-16T14:42:34.925Z,47.00
2023-02-16T14:45:59.096Z,44.85
2023-02-16T14:49:04.994Z,43.75
2023-02-16T14:52:37.145Z,41.90
2023-02-16T14:56:06.660Z,45.50
2023-02-16T14:59:32.789Z,48.05
2023-02-16T15:02:40.812Z,45.95
2023-02-16T15:05:49.458Z,44.60
2023-02-16T15:08:59.284Z,48.80
2023-02-16T15:12:23.048Z,49.55
2023-02-16T15:15:44.032Z,52.40
2023-02-16T15:18:53.468Z,49.25
2023-02-16T15:22:19.277Z,48.87
2023-02-16T15:25:34.717Z,51.72
2023-02-16T15:28:39.631Z,49.55
2023-02-16T15:31:41.997Z,49.85
2023-02-16T15:34:45.243Z,54.38
2023-02-16T15:37:47.799Z,55.63
2023-02-16T15:40:55.134Z,51.50
2023-02-16T15:43:58.711Z,51.45
2023-02-16T15:47:37.375Z,54.80
2023-02-16T15:50:39.728Z,53.78
2023-02-16T15:53:45.112Z,50.75
2023-02-16T15:56:48.986Z,54.08
2023-02-16T15:59:57.060Z,58.25
2023-02-16T16:03:01.087Z,54.95
2023-02-16T16:06:08.508Z,54.25
2023-02-16T16:09:27.769Z,53.55
2023-02-16T16:12:30.838Z,53.92
2023-02-16T16:15:45.254Z,52.35
2023-02-16T16:18:50.995Z,61.67
2023-02-16T16:21:54.673Z,54.15
2023-02-16T16:24:57.243Z,55.00
2023-02-16T16:27:59.963Z,55.33
2023-02-16T16:31:26.012Z,61.17
2023-02-16T16:34:34.230Z,54.70
2023-02-16T16:37:37.284Z,62.60
2023-02-16T16:40:40.063Z,58.75
2023-02-16T16:43:53.816Z,54.13
2023-02-16T16:46:56.254Z,62.25
2023-02-16T16:50:05.978Z,67.47
2023-02-16T16:53:43.121Z,65.70
2023-02-16T16:56:45.550Z,61.58
2023-02-16T16:59:47.724Z,66.78
2023-02-16T17:02:50.183Z,61.17
2023-02-16T17:05:52.488Z,62.67
2023-02-16T17:08:55.250Z,63.75
2023-02-16T17:11:58.439Z,67.75
2023-02-16T17:15:01.707Z,64.57
2023-02-16T17:18:04.842Z,64.72
2023-02-16T17:21:07.580Z,65.35
2023-02-16T17:24:10.263Z,64.03
2023-02-16T17:27:13.884Z,65.15
2023-02-16T17:30:16.226Z,61.85
2023-02-16T17:33:18.755Z,58.33
2023-02-16T17:36:22.583Z,55.65
2023-02-16T17:39:25.276Z,62.13
2023-02-16T17:42:28.323Z,59.40
2023-02-16T17:45:30.969Z,58.35
2023-02-16T17:48:33.309Z,56.83
2023-02-16T17:51:36.503Z,60.92
2023-02-16T17:54:39.132Z,59.95
2023-02-16T17:57:41.680Z,63.92
2023-02-16T18:00:45.111Z,65.57
2023-02-16T18:03:47.689Z,68.85
2023-02-16T18:06:50.764Z,67.87
2023-02-16T18:09:54.155Z,68.32
2023-02-16T18:12:56.311Z,63.92
2023-02-16T18:16:01.786Z,64.72
2023-02-16T18:19:04.508Z,61.63
2023-02-16T18:22:06.925Z,61.08
2023-02-16T18:25:09.217Z,70.50
2023-02-16T18:28:20.183Z,70.28
2023-02-16T18:31:22.472Z,69.10
2023-02-16T18:34:26.292Z,74.80
2023-02-16T18:37:28.838Z,78.40
2023-02-16T18:40:31.266Z,74.28
2023-02-16T18:43:35.760Z,76.22
2023-02-16T18:46:38.469Z,71.60
2023-02-16T18:49:41.842Z,75.32
2023-02-16T18:52:44.934Z,70.82
2023-02-16T18:55:47.153Z,76.65
2023-02-16T18:58:49.582Z,76.15
2023-02-16T19:01:56.273Z,78.10
2023-02-16T19:04:58.685Z,75.32
2023-02-16T19:08:00.911Z,82.65
2023-02-16T19:11:03.444Z,80.53
2023-02-16T19:14:05.625Z,82.60
2023-02-16T19:17:08.343Z,83.50
2023-02-16T19:20:14.485Z,78.40
2023-02-16T19:23:17.575Z,82.18
2023-02-16T19:26:20.031Z,81.35
2023-02-16T19:29:22.511Z,79.65
2023-02-16T19:32:24.738Z,77.97
2023-02-16T19:35:27.213Z,75.60
2023-02-16T19:38:29.687Z,74.45
2023-02-16T19:41:35.711Z,75.40
2023-02-16T19:44:39.308Z,71.72
2023-02-16T19:47:41.821Z,81.45
2023-02-16T19:50:44.438Z,79.32
2023-02-16T19:53:47.499Z,77.87
2023-02-16T19:56:49.652Z,80.38
2023-02-16T19:59:52.070Z,80.38
2023-02-16T20:02:54.301Z,80.75
2023-02-16T20:05:56.711Z,77.45
2023-02-16T20:09:00.752Z,80.85
2023-02-16T20:12:04.625Z,82.20
2023-02-16T20:15:07.065Z,85.18
2023-02-16T20:18:10.120Z,74.53
2023-02-16T20:21:20.905Z,80.90
2023-02-16T20:24:23.330Z,82.35
2023-02-16T20:27:27.737Z,80.70
2023-02-16T20:30:30.744Z,77.35
2023-02-16T20:33:32.949Z,80.18
2023-02-16T20:36:36.462Z,77.95
2023-02-16T20:39:38.638Z,78.87
2023-02-16T20:42:41.091Z,85.57
2023-02-16T20:45:43.313Z,78.97
2023-02-16T20:48:46.225Z,74.85
2023-02-16T20:51:48.466Z,84.07
2023-02-16T20:54:50.902Z,74.80
2023-02-16T20:57:53.115Z,82.50
2023-02-16T21:00:55.973Z,79.62
2023-02-16T21:03:59.915Z,87.55
2023-02-16T21:07:02.384Z,80.30
2023-02-16T21:10:07.590Z,75.10
2023-02-16T21:13:10.100Z,82.47
2023-02-16T21:16:14.113Z,89.15
2023-02-16T21:19:22.911Z,78.45
2023-02-16T21:22:25.634Z,84.30
2023-02-16T21:25:28.087Z,82.35
2023-02-16T21:28:30.421Z,80.30
2023-02-16T21:31:32.860Z,83.80
2023-02-16T21:34:35.406Z,78.65
2023-02-16T21:37:38.672Z,86.25
2023-02-16T21:41:12.934Z,82.60
2023-02-16T21:44:18.241Z,79.47
2023-02-16T21:47:39.173Z,79.85
2023-02-16T21:53:44.344Z,78.25
2023-02-16T21:56:50.322Z,84.13
2023-02-16T21:59:52.713Z,83.50
2023-02-16T22:02:55.142Z,81.55
2023-02-16T22:06:02.375Z,76.47
2023-02-16T22:09:10.400Z,77.85
2023-02-16T22:12:12.864Z,81.47
2023-02-16T22:15:15.072Z,78.18
2023-02-16T22:18:17.444Z,81.72
2023-02-16T22:21:19.658Z,76.37
2023-02-16T22:24:22.077Z,79.15
2023-02-16T22:27:24.237Z,81.72
2023-02-16T22:30:26.743Z,86.82
2023-02-16T22:33:28.915Z,82.75
2023-02-16T22:36:31.500Z,81.68
2023-02-16T22:39:33.669Z,77.47
2023-02-16T22:42:38.648Z,79.78
2023-02-16T22:45:40.822Z,84.00
2023-02-16T22:48:44.597Z,78.53
2023-02-16T22:51:46.759Z,85.80
2023-02-16T22:54:52.284Z,82.30
2023-02-16T22:57:54.447Z,83.90
2023-02-16T23:00:56.886Z,78.03
2023-02-16T23:04:00.784Z,74.35
2023-02-16T23:07:03.266Z,81.87
2023-02-16T23:10:06.060Z,79.85
2023-02-16T23:13:09.492Z,81.72
2023-02-16T23:16:14.825Z,80.00
2023-02-16T23:19:21.456Z,73.90
2023-02-16T23:22:23.587Z,78.97
2023-02-16T23:25:35.462Z,80.35
2023-02-16T23:28:39.296Z,77.80
2023-02-16T23:31:43.897Z,75.90
2023-02-16T23:34:46.035Z,78.18
2023-02-16T23:37:48.541Z,71.47
2023-02-16T23:41:16.863Z,80.97
2023-02-16T23:44:19.314Z,75.07
2023-02-16T23:47:22.444Z,76.10
2023-02-16T23:50:25.041Z,73.95
2023-02-16T23:53:28.380Z,81.15
2023-02-16T23:56:30.968Z,75.40
2023-02-16T23:59:33.794Z,81.95
